createdAt,value
2019-05-17T00:00:07.501Z,8.90
2019-05-17T00:02:37.486Z,8.90
2019-05-17T00:05:06.961Z,8.80
2019-05-17T00:07:36.959Z,8.80
2019-05-17T00:10:08.820Z,8.70
2019-05-17T00:12:37.129Z,8.70
2019-05-17T00:15:07.706Z,8.70
2019-05-17T00:17:37.747Z,8.60
2019-05-17T00:20:07.154Z,8.60
2019-05-17T00:22:36.622Z,8.60
2019-05-17T00:25:07.391Z,8.60
2019-05-17T00:27:36.783Z,8.50
2019-05-17T00:30:08.800Z,8.50
2019-05-17T00:32:37.124Z,8.50
2019-05-17T00:35:07.592Z,8.40
2019-05-17T00:37:37.279Z,8.40
2019-05-17T00:40:07.523Z,8.40
2019-05-17T00:42:37.233Z,8.30
2019-05-17T00:45:06.911Z,8.30
2019-05-17T00:47:37.217Z,8.20
2019-05-17T00:50:07.374Z,8.20
2019-05-17T00:52:36.817Z,8.20
2019-05-17T00:55:08.459Z,8.10
2019-05-17T00:57:37.129Z,8.10
2019-05-17T01:00:08.615Z,8.10
2019-05-17T01:02:37.000Z,8.00
2019-05-17T01:05:06.584Z,8.00
2019-05-17T01:07:37.401Z,8.00
2019-05-17T01:10:07.325Z,7.90
2019-05-17T01:12:36.537Z,8.00
2019-05-17T01:15:07.448Z,7.90
2019-05-17T01:17:36.543Z,7.90
2019-05-17T01:20:07.941Z,7.90
2019-05-17T01:22:36.750Z,7.90
2019-05-17T01:25:08.201Z,7.90
2019-05-17T01:27:38.206Z,7.80
2019-05-17T01:30:07.040Z,7.80
2019-05-17T01:32:37.478Z,7.80
2019-05-17T01:35:07.264Z,7.70
2019-05-17T01:37:37.010Z,7.70
2019-05-17T01:40:07.224Z,7.70
2019-05-17T01:42:37.454Z,7.70
2019-05-17T01:45:07.302Z,7.70
2019-05-17T01:47:36.797Z,7.70
2019-05-17T01:50:08.324Z,7.60
2019-05-17T01:52:37.015Z,7.60
2019-05-17T01:55:06.825Z,7.60
2019-05-17T01:57:36.996Z,7.60
2019-05-17T02:00:07.550Z,7.60
2019-05-17T02:02:40.315Z,7.50
2019-05-17T02:05:08.647Z,7.50
2019-05-17T02:07:37.323Z,7.50
2019-05-17T02:10:07.622Z,7.40
2019-05-17T02:12:37.169Z,7.40
2019-05-17T02:15:10.346Z,7.30
2019-05-17T02:17:38.849Z,7.30
2019-05-17T02:20:07.621Z,7.30
2019-05-17T02:22:36.802Z,7.30
2019-05-17T02:25:08.209Z,7.20
2019-05-17T02:27:41.249Z,7.20
2019-05-17T02:30:07.104Z,7.20
2019-05-17T02:32:35.447Z,7.10
2019-05-17T02:35:04.109Z,7.10
2019-05-17T02:37:33.398Z,7.10
2019-05-17T02:40:07.704Z,7.10
2019-05-17T02:42:33.370Z,7.10
2019-05-17T02:45:03.263Z,7.10
2019-05-17T02:47:33.720Z,7.10
2019-05-17T02:50:05.186Z,7.00
2019-05-17T02:52:32.907Z,7.00
2019-05-17T02:55:04.162Z,7.00
2019-05-17T02:57:34.412Z,7.00
2019-05-17T03:00:04.348Z,7.00
2019-05-17T03:02:34.118Z,7.00
2019-05-17T03:05:03.909Z,7.00
2019-05-17T03:07:32.625Z,7.00
2019-05-17T03:10:16.521Z,6.90
2019-05-17T03:12:32.886Z,6.90
2019-05-17T03:15:04.160Z,6.90
2019-05-17T03:17:33.876Z,6.90
2019-05-17T03:20:03.916Z,6.90
2019-05-17T03:22:33.248Z,6.80
2019-05-17T03:25:03.317Z,6.80
2019-05-17T03:27:33.501Z,6.70
2019-05-17T03:30:04.187Z,6.70
2019-05-17T03:32:36.260Z,6.70
2019-05-17T03:35:06.209Z,6.60
2019-05-17T03:37:36.802Z,6.70
2019-05-17T03:40:04.571Z,6.60
2019-05-17T03:42:33.106Z,6.60
2019-05-17T03:45:02.863Z,6.60
2019-05-17T03:47:33.401Z,6.60
2019-05-17T03:50:03.080Z,6.60
2019-05-17T03:52:33.105Z,6.60
2019-05-17T03:55:03.540Z,6.50
2019-05-17T03:57:33.455Z,6.50
2019-05-17T04:00:03.799Z,6.50
2019-05-17T04:02:32.669Z,6.40
2019-05-17T04:05:04.177Z,6.40
2019-05-17T04:07:32.787Z,6.40
2019-05-17T04:10:04.416Z,6.40
2019-05-17T04:12:32.730Z,6.40
2019-05-17T04:15:03.222Z,6.40
2019-05-17T04:17:32.793Z,6.40
2019-05-17T04:20:03.452Z,6.40
2019-05-17T04:22:33.094Z,6.50
2019-05-17T04:25:02.955Z,6.50
2019-05-17T04:27:32.644Z,6.50
2019-05-17T04:30:03.722Z,6.50
2019-05-17T04:32:33.086Z,6.60
2019-05-17T04:35:03.696Z,6.60
2019-05-17T04:37:33.992Z,6.70
2019-05-17T04:40:03.629Z,6.80
2019-05-17T04:42:33.102Z,6.90
2019-05-17T04:45:03.616Z,7.00
2019-05-17T04:47:33.271Z,7.10
2019-05-17T04:50:03.987Z,7.10
2019-05-17T04:52:33.649Z,7.10
2019-05-17T04:55:04.083Z,7.20
2019-05-17T04:57:32.571Z,7.20
2019-05-17T05:00:04.262Z,7.20
2019-05-17T05:02:33.073Z,7.20
2019-05-17T05:05:03.390Z,7.30
2019-05-17T05:07:33.623Z,7.50
2019-05-17T05:10:02.927Z,7.70
2019-05-17T05:12:33.503Z,7.80
2019-05-17T05:15:03.525Z,8.00
2019-05-17T05:17:32.999Z,8.00
2019-05-17T05:20:02.796Z,8.10
2019-05-17T05:22:33.083Z,8.20
2019-05-17T05:25:02.136Z,8.40
2019-05-17T05:27:31.641Z,8.60
2019-05-17T05:30:00.016Z,8.70
2019-05-17T05:32:28.274Z,8.90
2019-05-17T05:34:56.521Z,9.00
2019-05-17T05:37:24.834Z,9.20
2019-05-17T05:39:54.653Z,9.30
2019-05-17T05:42:23.016Z,9.50
2019-05-17T05:44:52.260Z,9.70
2019-05-17T05:47:22.185Z,9.70
2019-05-17T05:49:52.063Z,9.90
2019-05-17T05:52:21.869Z,10.00
2019-05-17T05:54:52.069Z,10.10
2019-05-17T05:57:21.919Z,10.20
2019-05-17T05:59:51.851Z,10.40
2019-05-17T06:02:21.760Z,10.50
2019-05-17T06:04:51.868Z,10.60
2019-05-17T06:07:21.645Z,10.40
2019-05-17T06:09:51.743Z,10.50
2019-05-17T06:12:24.836Z,10.60
2019-05-17T06:14:52.232Z,10.80
2019-05-17T06:17:21.583Z,10.80
2019-05-17T06:19:51.704Z,10.90
2019-05-17T06:22:22.237Z,11.00
2019-05-17T06:24:52.055Z,10.90
2019-05-17T06:27:21.550Z,10.90
2019-05-17T06:29:51.483Z,11.10
2019-05-17T06:32:22.529Z,11.10
2019-05-17T06:34:51.512Z,11.20
2019-05-17T06:37:22.197Z,11.40
2019-05-17T06:39:52.495Z,11.60
2019-05-17T06:42:21.622Z,11.80
2019-05-17T06:44:52.257Z,11.80
2019-05-17T06:47:22.395Z,11.90
2019-05-17T06:49:50.622Z,12.00
2019-05-17T06:52:22.510Z,12.20
2019-05-17T06:54:52.315Z,12.30
2019-05-17T06:57:20.029Z,12.30
2019-05-17T06:59:48.302Z,12.30
2019-05-17T07:02:16.537Z,12.40
2019-05-17T07:04:44.785Z,12.50
2019-05-17T07:07:23.616Z,12.70
2019-05-17T07:09:51.901Z,13.00
2019-05-17T07:12:20.378Z,13.00
2019-05-17T07:14:50.695Z,13.00
2019-05-17T07:17:19.741Z,13.00
2019-05-17T07:19:50.580Z,13.20
2019-05-17T07:22:18.084Z,13.40
2019-05-17T07:24:46.396Z,13.50
2019-05-17T07:27:14.672Z,13.60
2019-05-17T07:29:42.987Z,13.70
2019-05-17T07:32:11.248Z,13.80
2019-05-17T07:34:40.195Z,13.90
2019-05-17T07:37:10.587Z,13.90
2019-05-17T07:39:40.088Z,14.00
2019-05-17T07:42:09.653Z,14.20
2019-05-17T07:44:40.148Z,14.30
2019-05-17T07:47:09.708Z,14.00
2019-05-17T07:49:40.338Z,14.20
2019-05-17T07:52:10.200Z,14.30
2019-05-17T07:54:39.896Z,14.20
2019-05-17T07:57:10.342Z,14.20
2019-05-17T07:59:39.745Z,14.30
2019-05-17T08:02:10.450Z,14.10
2019-05-17T08:04:40.495Z,14.10
2019-05-17T08:07:10.413Z,14.20
2019-05-17T08:09:40.268Z,14.40
2019-05-17T08:12:10.850Z,14.60
2019-05-17T08:14:39.892Z,14.60
2019-05-17T08:17:10.095Z,14.50
2019-05-17T08:19:40.129Z,14.50
2019-05-17T08:22:09.795Z,14.80
2019-05-17T08:24:39.811Z,14.90
2019-05-17T08:27:07.718Z,15.10
2019-05-17T08:29:35.972Z,15.20
2019-05-17T08:32:04.217Z,15.20
2019-05-17T08:34:32.454Z,15.40
2019-05-17T08:37:01.071Z,15.60
2019-05-17T08:39:30.235Z,15.70
2019-05-17T08:42:01.211Z,15.90
2019-05-17T08:44:29.883Z,16.10
2019-05-17T08:46:59.479Z,16.10
2019-05-17T08:49:29.551Z,16.20
2019-05-17T08:51:59.435Z,16.20
2019-05-17T08:54:30.294Z,16.20
2019-05-17T08:56:57.813Z,16.30
2019-05-17T08:59:26.079Z,16.30
2019-05-17T09:01:54.313Z,16.00
2019-05-17T09:04:22.656Z,16.20
2019-05-17T09:06:50.894Z,16.30
2019-05-17T09:09:20.412Z,16.40
2019-05-17T09:11:50.130Z,16.40
2019-05-17T09:14:18.593Z,16.70
2019-05-17T09:16:46.817Z,16.80
2019-05-17T09:19:15.068Z,16.90
2019-05-17T09:21:43.292Z,17.00
2019-05-17T09:24:11.572Z,16.50
2019-05-17T09:26:40.072Z,16.50
2019-05-17T09:29:10.602Z,16.70
2019-05-17T09:31:40.400Z,16.80
2019-05-17T09:34:09.641Z,16.90
2019-05-17T09:36:40.623Z,17.00
2019-05-17T09:39:09.476Z,17.00
2019-05-17T09:41:39.734Z,17.00
2019-05-17T09:44:15.163Z,17.00
2019-05-17T09:46:39.540Z,16.80
2019-05-17T09:49:10.195Z,16.70
2019-05-17T09:51:39.596Z,17.10
2019-05-17T09:54:10.094Z,17.50
2019-05-17T09:56:39.468Z,17.70
2019-05-17T09:59:09.749Z,17.90
2019-05-17T10:01:39.422Z,17.60
2019-05-17T10:04:07.658Z,17.80
2019-05-17T10:06:35.954Z,18.00
2019-05-17T10:09:05.654Z,18.20
2019-05-17T10:11:33.884Z,18.30
2019-05-17T10:14:02.289Z,18.50
2019-05-17T10:16:30.860Z,18.60
2019-05-17T10:19:00.084Z,18.30
2019-05-17T10:21:30.379Z,18.30
2019-05-17T10:24:00.178Z,18.60
2019-05-17T10:26:30.376Z,18.80
2019-05-17T10:28:59.421Z,18.50
2019-05-17T10:31:30.258Z,18.40
2019-05-17T10:33:58.911Z,18.70
2019-05-17T10:36:29.403Z,18.90
2019-05-17T10:38:59.279Z,19.10
2019-05-17T10:41:29.966Z,19.20
2019-05-17T10:43:57.628Z,19.40
2019-05-17T10:46:25.887Z,19.60
2019-05-17T10:48:54.102Z,19.70
2019-05-17T10:51:22.359Z,19.80
2019-05-17T10:53:51.440Z,19.90
2019-05-17T10:56:23.344Z,20.00
2019-05-17T10:58:50.063Z,20.00
2019-05-17T11:01:20.043Z,20.10
2019-05-17T11:03:50.260Z,20.10
2019-05-17T11:06:19.762Z,20.00
2019-05-17T11:08:50.111Z,19.70
2019-05-17T11:11:20.033Z,19.70
2019-05-17T11:13:48.317Z,19.80
2019-05-17T11:16:16.572Z,20.00
2019-05-17T11:18:44.803Z,20.20
2019-05-17T11:21:13.082Z,19.80
2019-05-17T11:23:41.401Z,19.30
2019-05-17T11:26:09.700Z,19.10
2019-05-17T11:28:37.968Z,19.50
2019-05-17T11:31:06.213Z,19.80
2019-05-17T11:33:34.533Z,20.10
2019-05-17T11:36:02.769Z,20.10
2019-05-17T11:38:31.026Z,20.30
2019-05-17T11:40:59.292Z,20.30
2019-05-17T11:43:27.616Z,20.40
2019-05-17T11:45:55.845Z,20.60
2019-05-17T11:48:24.104Z,20.70
2019-05-17T11:50:55.059Z,20.90
2019-05-17T11:53:22.343Z,20.70
2019-05-17T11:55:50.584Z,20.60
2019-05-17T11:58:18.853Z,20.30
2019-05-17T12:00:47.096Z,20.30
2019-05-17T12:03:15.344Z,20.50
2019-05-17T12:05:43.590Z,20.70
2019-05-17T12:08:11.844Z,20.80
2019-05-17T12:10:40.098Z,21.00
2019-05-17T12:13:08.542Z,21.20
2019-05-17T12:15:45.134Z,21.40
2019-05-17T12:18:06.793Z,21.20
2019-05-17T12:20:35.288Z,21.30
2019-05-17T12:23:03.554Z,21.30
2019-05-17T12:25:31.777Z,21.30
2019-05-17T12:28:00.029Z,21.30
2019-05-17T12:30:28.267Z,21.40
2019-05-17T12:32:56.517Z,21.30
2019-05-17T12:35:24.762Z,21.20
2019-05-17T12:37:53.029Z,21.10
2019-05-17T12:40:21.270Z,21.20
2019-05-17T12:42:49.508Z,21.40
2019-05-17T12:45:17.764Z,21.60
2019-05-17T12:47:45.995Z,21.60
2019-05-17T12:50:14.254Z,21.60
2019-05-17T12:52:42.521Z,21.50
2019-05-17T12:55:10.769Z,21.70
2019-05-17T12:57:39.000Z,21.60
2019-05-17T13:00:07.600Z,21.50
2019-05-17T13:02:35.838Z,21.60
2019-05-17T13:05:04.945Z,21.70
2019-05-17T13:07:33.191Z,21.70
2019-05-17T13:10:01.521Z,21.90
2019-05-17T13:12:29.856Z,22.10
2019-05-17T13:14:58.119Z,22.30
2019-05-17T13:17:26.355Z,22.20
2019-05-17T13:19:54.610Z,22.30
2019-05-17T13:22:22.946Z,22.40
2019-05-17T13:24:51.181Z,22.40
2019-05-17T13:27:19.449Z,22.50
2019-05-17T13:29:47.782Z,22.30
2019-05-17T13:32:16.071Z,22.10
2019-05-17T13:34:44.329Z,22.50
2019-05-17T13:37:12.555Z,22.50
2019-05-17T13:39:40.808Z,22.50
2019-05-17T13:42:09.060Z,22.60
2019-05-17T13:44:37.306Z,22.60
2019-05-17T13:47:05.558Z,22.60
2019-05-17T13:49:33.810Z,22.60
2019-05-17T13:52:02.167Z,22.20
2019-05-17T13:54:30.707Z,22.00
2019-05-17T13:56:58.986Z,21.60
2019-05-17T13:59:27.218Z,21.50
2019-05-17T14:01:55.472Z,21.50
2019-05-17T14:04:23.702Z,21.70
2019-05-17T14:06:51.981Z,22.00
2019-05-17T14:09:20.289Z,22.20
2019-05-17T14:11:48.549Z,22.30
2019-05-17T14:14:16.784Z,22.40
2019-05-17T14:16:45.044Z,22.30
2019-05-17T14:19:13.369Z,22.40
2019-05-17T14:21:41.690Z,22.50
2019-05-17T14:24:09.945Z,22.50
2019-05-17T14:26:38.199Z,22.50
2019-05-17T14:29:06.952Z,22.50
2019-05-17T14:31:35.206Z,22.60
2019-05-17T14:34:03.481Z,22.70
2019-05-17T14:36:31.761Z,22.70
2019-05-17T14:39:00.006Z,22.70
2019-05-17T14:41:28.293Z,22.50
2019-05-17T14:43:56.544Z,22.50
2019-05-17T14:46:24.800Z,22.50
2019-05-17T14:48:53.058Z,22.40
2019-05-17T14:51:21.319Z,22.20
2019-05-17T14:53:52.734Z,22.00
2019-05-17T14:56:21.163Z,22.00
2019-05-17T14:58:49.416Z,21.90
2019-05-17T15:01:17.681Z,21.90
2019-05-17T15:03:45.949Z,21.80
2019-05-17T15:06:14.353Z,21.90
2019-05-17T15:08:42.602Z,21.70
2019-05-17T15:11:10.840Z,21.60
2019-05-17T15:13:39.086Z,21.60
2019-05-17T15:16:07.330Z,21.60
2019-05-17T15:18:35.586Z,21.70
2019-05-17T15:21:03.831Z,21.60
2019-05-17T15:23:32.091Z,21.70
2019-05-17T15:26:00.321Z,21.60
2019-05-17T15:28:28.589Z,21.60
2019-05-17T15:30:56.833Z,21.60
2019-05-17T15:33:25.100Z,21.50
2019-05-17T15:35:53.324Z,21.40
2019-05-17T15:38:21.630Z,21.00
2019-05-17T15:40:49.904Z,20.40
2019-05-17T15:43:18.146Z,19.70
2019-05-17T15:45:46.392Z,19.20
2019-05-17T15:48:14.660Z,18.70
2019-05-17T15:50:42.906Z,18.40
2019-05-17T15:53:11.176Z,18.10
2019-05-17T15:55:39.422Z,17.90
2019-05-17T15:58:07.653Z,17.70
2019-05-17T16:00:35.929Z,17.60
2019-05-17T16:03:04.158Z,17.60
2019-05-17T16:05:32.450Z,17.40
2019-05-17T16:08:00.696Z,17.40
2019-05-17T16:10:28.965Z,17.30
2019-05-17T16:13:02.383Z,17.20
2019-05-17T16:15:27.187Z,17.10
2019-05-17T16:17:55.447Z,16.90
2019-05-17T16:20:23.725Z,16.60
2019-05-17T16:22:51.970Z,16.40
2019-05-17T16:25:20.315Z,16.30
2019-05-17T16:27:48.559Z,16.10
2019-05-17T16:30:16.809Z,16.10
2019-05-17T16:32:45.054Z,16.10
2019-05-17T16:35:13.679Z,16.10
2019-05-17T16:37:41.934Z,16.10
2019-05-17T16:40:10.194Z,16.10
2019-05-17T16:42:38.428Z,16.20
2019-05-17T16:45:06.766Z,16.20
2019-05-17T16:47:35.006Z,16.20
2019-05-17T16:50:04.522Z,16.20
2019-05-17T16:52:32.775Z,16.30
2019-05-17T16:55:01.034Z,16.30
2019-05-17T16:57:29.292Z,16.40
2019-05-17T16:59:57.531Z,16.40
2019-05-17T17:02:25.766Z,16.40
2019-05-17T17:04:54.009Z,16.40
2019-05-17T17:07:22.253Z,16.50
2019-05-17T17:09:50.519Z,16.50
2019-05-17T17:12:18.757Z,16.40
2019-05-17T17:14:46.978Z,16.40
2019-05-17T17:17:15.251Z,16.30
2019-05-17T17:19:43.479Z,16.20
2019-05-17T17:22:11.827Z,16.10
2019-05-17T17:24:40.060Z,16.00
2019-05-17T17:27:08.328Z,16.00
2019-05-17T17:29:36.556Z,16.00
2019-05-17T17:32:04.926Z,15.90
2019-05-17T17:34:33.223Z,15.90
2019-05-17T17:37:01.490Z,15.90
2019-05-17T17:39:29.741Z,15.90
2019-05-17T17:41:58.015Z,16.00
2019-05-17T17:44:26.267Z,16.00
2019-05-17T17:46:54.550Z,16.00
2019-05-17T17:49:22.802Z,16.10
2019-05-17T17:51:51.073Z,16.20
2019-05-17T17:54:19.317Z,16.10
2019-05-17T17:56:47.591Z,16.00
2019-05-17T17:59:15.833Z,15.90
2019-05-17T18:01:44.140Z,15.80
2019-05-17T18:04:12.392Z,15.70
2019-05-17T18:06:40.639Z,15.60
2019-05-17T18:09:08.913Z,15.50
2019-05-17T18:11:37.145Z,15.40
2019-05-17T18:14:13.050Z,15.30
2019-05-17T18:16:35.420Z,15.20
2019-05-17T18:19:03.696Z,15.20
2019-05-17T18:21:31.941Z,15.30
2019-05-17T18:24:00.218Z,15.20
2019-05-17T18:26:28.455Z,15.20
2019-05-17T18:28:56.722Z,15.20
2019-05-17T18:31:24.959Z,15.20
2019-05-17T18:33:53.251Z,15.10
2019-05-17T18:36:21.480Z,15.00
2019-05-17T18:38:50.593Z,15.10
2019-05-17T18:41:18.896Z,15.00
2019-05-17T18:43:47.158Z,15.00
2019-05-17T18:46:15.406Z,14.90
2019-05-17T18:48:43.660Z,14.90
2019-05-17T18:51:11.966Z,14.90
2019-05-17T18:53:40.495Z,14.80
2019-05-17T18:56:08.735Z,14.80
2019-05-17T18:58:39.274Z,14.70
2019-05-17T19:01:06.979Z,14.70
2019-05-17T19:03:35.243Z,14.70
2019-05-17T19:06:03.488Z,14.70
2019-05-17T19:08:31.746Z,14.70
2019-05-17T19:10:59.997Z,14.60
2019-05-17T19:13:28.233Z,14.60
2019-05-17T19:15:56.496Z,14.60
2019-05-17T19:18:24.743Z,14.50
2019-05-17T19:20:52.992Z,14.40
2019-05-17T19:23:21.277Z,14.20
2019-05-17T19:25:49.525Z,14.10
2019-05-17T19:28:17.764Z,14.20
2019-05-17T19:30:46.023Z,14.20
2019-05-17T19:33:14.248Z,14.20
2019-05-17T19:35:42.516Z,14.10
2019-05-17T19:38:10.754Z,14.10
2019-05-17T19:40:39.015Z,14.00
2019-05-17T19:43:07.264Z,14.10
2019-05-17T19:45:35.529Z,14.10
2019-05-17T19:48:03.925Z,14.10
2019-05-17T19:50:32.350Z,14.10
2019-05-17T19:53:00.588Z,14.00
2019-05-17T19:55:28.851Z,14.00
2019-05-17T19:57:57.111Z,14.00
2019-05-17T20:00:25.361Z,14.00
2019-05-17T20:02:53.610Z,13.90
2019-05-17T20:05:21.893Z,13.90
2019-05-17T20:07:50.196Z,13.90
2019-05-17T20:12:39.451Z,13.90
2019-05-17T20:15:17.241Z,13.80
2019-05-17T20:17:37.926Z,13.70
2019-05-17T20:20:06.746Z,13.70
2019-05-17T20:22:35.026Z,13.70
2019-05-17T20:25:04.317Z,13.50
2019-05-17T20:27:32.576Z,13.50
2019-05-17T20:30:00.824Z,13.50
2019-05-17T20:32:29.087Z,13.60
2019-05-17T20:34:57.321Z,13.60
2019-05-17T20:37:25.581Z,13.60
2019-05-17T20:39:53.814Z,13.60
2019-05-17T20:42:22.064Z,13.60
2019-05-17T20:44:50.313Z,13.40
2019-05-17T20:47:18.561Z,13.40
2019-05-17T20:49:47.184Z,13.50
2019-05-17T20:52:15.450Z,13.60
2019-05-17T20:54:43.690Z,13.60
2019-05-17T20:57:11.951Z,13.60
2019-05-17T20:59:40.211Z,13.50
2019-05-17T21:02:08.483Z,13.30
2019-05-17T21:04:36.781Z,13.40
2019-05-17T21:07:05.056Z,13.50
2019-05-17T21:09:33.301Z,13.50
2019-05-17T21:12:01.589Z,13.50
2019-05-17T21:14:29.834Z,13.60
2019-05-17T21:16:58.111Z,13.60
2019-05-17T21:19:26.355Z,13.60
2019-05-17T21:21:54.582Z,13.70
2019-05-17T21:24:22.848Z,13.70
2019-05-17T21:26:51.106Z,13.60
2019-05-17T21:29:19.384Z,13.60
2019-05-17T21:31:47.649Z,13.60
2019-05-17T21:34:15.904Z,13.50
2019-05-17T21:36:44.154Z,13.60
2019-05-17T21:39:12.465Z,13.60
2019-05-17T21:41:40.761Z,13.60
2019-05-17T21:44:09.000Z,13.60
2019-05-17T21:46:37.237Z,13.60
2019-05-17T21:49:05.515Z,13.60
2019-05-17T21:51:33.742Z,13.60
2019-05-17T21:54:01.989Z,13.60
2019-05-17T21:56:30.236Z,13.60
2019-05-17T21:58:58.489Z,13.70
2019-05-17T22:01:26.973Z,13.70
2019-05-17T22:03:55.225Z,13.70
2019-05-17T22:06:23.698Z,13.60
2019-05-17T22:08:51.947Z,13.60
2019-05-17T22:11:20.247Z,13.60
2019-05-17T22:13:48.493Z,13.50
2019-05-17T22:16:19.937Z,13.40
2019-05-17T22:18:46.756Z,13.30
2019-05-17T22:21:14.997Z,13.30
2019-05-17T22:23:43.230Z,13.30
2019-05-17T22:26:11.480Z,13.30
2019-05-17T22:28:39.700Z,13.30
2019-05-17T22:31:07.957Z,13.30
2019-05-17T22:33:36.215Z,13.30
2019-05-17T22:36:04.479Z,13.30
2019-05-17T22:38:32.702Z,13.30
2019-05-17T22:41:01.020Z,13.30
2019-05-17T22:43:29.277Z,13.30
2019-05-17T22:45:57.545Z,13.40
2019-05-17T22:48:25.769Z,13.40
2019-05-17T22:50:54.029Z,13.40
2019-05-17T22:53:22.285Z,13.40
2019-05-17T22:55:50.547Z,13.40
2019-05-17T22:58:18.785Z,13.40
2019-05-17T23:00:47.031Z,13.40
2019-05-17T23:03:15.299Z,13.40
2019-05-17T23:05:43.548Z,13.40
2019-05-17T23:08:11.798Z,13.40
2019-05-17T23:10:40.072Z,13.40
2019-05-17T23:13:08.296Z,13.40
2019-05-17T23:15:38.200Z,13.40
2019-05-17T23:18:06.448Z,13.40
2019-05-17T23:20:34.693Z,13.40
2019-05-17T23:23:02.986Z,13.30
2019-05-17T23:25:31.220Z,13.30
2019-05-17T23:27:59.481Z,13.30
2019-05-17T23:30:27.766Z,13.30
2019-05-17T23:32:56.022Z,13.30
2019-05-17T23:35:24.329Z,13.30
2019-05-17T23:37:52.588Z,13.30
2019-05-17T23:40:20.842Z,13.30
2019-05-17T23:42:49.088Z,13.20
2019-05-17T23:45:17.324Z,13.20
2019-05-17T23:47:45.649Z,13.20
2019-05-17T23:50:13.884Z,13.20
2019-05-17T23:52:42.210Z,13.20
2019-05-17T23:55:10.433Z,13.10
2019-05-17T23:57:38.680Z,13.10
